Time;durP1;ratioP1;P1;durP2;ratioP2;P2;SDS_P1;SDS_P2;PMS_P1;PMS_P2;Temp;Humidity;BMP_temperature;BMP_pressure;BME280_temperature;BME280_humidity;BME280_pressure;Samples;Min_cycle;Max_cycle;Signal;HPM_P1;HPM_P2
2023/06/18 00:00:41;;;;;;;28.98;21.27;;;14.30;99.90;;;;;;5044876;28;20430;-80
2023/06/18 00:03:07;;;;;;;28.25;20.38;;;14.30;99.90;;;;;;5047562;28;20117;-79
2023/06/18 00:05:33;;;;;;;25.83;18.95;;;14.20;99.90;;;;;;5042760;28;20462;-79
2023/06/18 00:07:58;;;;;;;29.75;21.27;;;14.10;99.90;;;;;;5041197;28;20456;-79
2023/06/18 00:10:24;;;;;;;27.73;18.75;;;14.10;99.90;;;;;;5043509;28;20097;-79
2023/06/18 00:12:50;;;;;;;25.17;19.45;;;14.00;99.90;;;;;;5040484;28;20045;-79
2023/06/18 00:15:16;;;;;;;24.00;18.55;;;14.00;99.90;;;;;;5058091;28;20067;-79
2023/06/18 00:17:41;;;;;;;30.05;23.05;;;13.90;99.90;;;;;;5043040;28;20101;-79
2023/06/18 00:20:07;;;;;;;33.50;22.35;;;13.90;99.90;;;;;;5041753;28;20154;-79
2023/06/18 00:22:38;;;;;;;27.77;20.83;;;13.90;99.90;;;;;;5057279;28;20313;-79
2023/06/18 00:25:07;;;;;;;29.58;21.38;;;13.80;99.90;;;;;;5044920;28;20525;-79
2023/06/18 00:27:33;;;;;;;27.38;21.27;;;13.90;99.90;;;;;;5058417;28;20055;-79
2023/06/18 00:30:00;;;;;;;31.02;22.85;;;13.90;99.90;;;;;;5045171;28;20071;-80
2023/06/18 00:32:25;;;;;;;31.08;21.52;;;13.90;99.90;;;;;;5042229;28;20052;-80
2023/06/18 00:34:54;;;;;;;27.77;20.52;;;13.80;99.90;;;;;;5056882;28;20561;-79
2023/06/18 00:37:20;;;;;;;30.20;22.65;;;13.90;99.90;;;;;;5041845;28;20442;-79
2023/06/18 00:39:46;;;;;;;29.25;21.73;;;13.80;99.90;;;;;;5045389;28;20099;-79
2023/06/18 00:42:13;;;;;;;34.08;23.85;;;13.80;99.90;;;;;;5044417;28;20039;-79
2023/06/18 00:44:40;;;;;;;114.80;14.70;;;13.90;99.90;;;;;;5055634;28;20051;-79
2023/06/18 00:47:07;;;;;;;23.75;18.48;;;13.80;99.90;;;;;;5060051;28;20147;-79
2023/06/18 00:49:33;;;;;;;22.95;17.17;;;13.70;99.90;;;;;;5057431;28;20081;-80
2023/06/18 00:52:00;;;;;;;32.25;20.92;;;13.60;99.90;;;;;;5040904;28;20055;-79
2023/06/18 00:54:30;;;;;;;32.72;23.27;;;13.70;99.90;;;;;;5038751;28;20419;-80
2023/06/18 00:56:59;;;;;;;24.45;17.55;;;13.70;99.90;;;;;;5042171;28;20494;-80
2023/06/18 00:59:27;;;;;;;30.98;21.63;;;13.70;99.90;;;;;;5045202;28;20036;-79
2023/06/18 01:01:54;;;;;;;34.25;23.30;;;13.70;99.90;;;;;;5077920;28;20190;-79
2023/06/18 01:04:26;;;;;;;31.90;22.67;;;13.80;99.90;;;;;;5046571;28;20044;-79
2023/06/18 01:06:57;;;;;;;41.67;26.13;;;13.80;99.90;;;;;;5054978;28;20047;-79
2023/06/18 01:09:25;;;;;;;33.25;23.38;;;13.80;99.90;;;;;;5045927;28;20044;-79
2023/06/18 01:11:52;;;;;;;35.63;25.67;;;13.70;99.90;;;;;;5057667;28;20051;-79
2023/06/18 01:14:22;;;;;;;36.97;24.55;;;13.80;99.90;;;;;;5056505;28;20102;-79
2023/06/18 01:16:49;;;;;;;39.53;27.40;;;13.70;99.90;;;;;;5055703;28;20047;-79
2023/06/18 01:19:42;;;;;;;39.58;24.92;;;13.80;99.90;;;;;;5042019;28;20043;-79
2023/06/18 01:22:30;;;;;;;29.15;21.65;;;13.80;99.90;;;;;;5056716;28;20040;-79
2023/06/18 01:25:03;;;;;;;30.73;22.58;;;13.70;99.90;;;;;;5045434;28;20086;-79
2023/06/18 01:27:33;;;;;;;37.13;26.40;;;13.80;99.90;;;;;;5057466;28;20636;-79
2023/06/18 01:30:03;;;;;;;37.47;25.98;;;13.80;99.90;;;;;;5046064;28;20051;-79
2023/06/18 01:32:29;;;;;;;36.65;25.38;;;13.80;99.90;;;;;;5055500;28;20075;-79
2023/06/18 01:34:55;;;;;;;32.45;24.13;;;13.80;99.90;;;;;;5043660;28;20448;-79
2023/06/18 01:37:40;;;;;;;36.30;24.05;;;13.70;99.90;;;;;;5055807;28;20047;-79
2023/06/18 01:40:47;;;;;;;37.78;25.17;;;13.70;99.90;;;;;;5053435;28;20056;-79
2023/06/18 01:43:25;;;;;;;37.20;25.13;;;13.80;99.90;;;;;;5030700;28;20044;-79
2023/06/18 01:45:57;;;;;;;37.38;25.95;;;13.80;99.90;;;;;;5054727;28;20037;-79
2023/06/18 01:48:26;;;;;;;43.72;28.02;;;13.80;99.90;;;;;;5052891;28;20044;-79
2023/06/18 01:50:53;;;;;;;36.03;25.30;;;13.80;99.90;;;;;;5042128;28;20036;-79
2023/06/18 01:53:21;;;;;;;41.10;26.45;;;13.80;99.90;;;;;;5056887;28;20036;-79
2023/06/18 01:55:49;;;;;;;33.75;22.80;;;13.80;99.90;;;;;;5056042;28;20040;-79
2023/06/18 01:58:15;;;;;;;40.58;27.48;;;13.70;99.90;;;;;;5037194;28;20571;-79
2023/06/18 02:00:41;;;;;;;42.95;27.52;;;13.70;99.90;;;;;;5042738;28;20532;-79
2023/06/18 02:03:08;;;;;;;42.58;27.38;;;13.70;99.90;;;;;;5058655;28;20085;-79
2023/06/18 02:05:34;;;;;;;44.28;26.65;;;13.70;99.90;;;;;;5035030;28;20098;-79
2023/06/18 02:07:59;;;;;;;42.25;26.58;;;13.70;99.90;;;;;;5039701;28;20051;-79
2023/06/18 02:10:25;;;;;;;38.13;26.52;;;13.70;99.90;;;;;;5058591;28;20500;-79
2023/06/18 02:12:51;;;;;;;37.25;25.42;;;13.60;99.90;;;;;;5058134;28;20043;-79
2023/06/18 02:15:16;;;;;;;37.47;24.85;;;13.60;99.90;;;;;;5042394;28;20487;-79
2023/06/18 02:17:43;;;;;;;40.35;27.30;;;13.60;99.90;;;;;;5042567;28;20099;-79
2023/06/18 02:20:10;;;;;;;48.88;29.08;;;13.60;99.90;;;;;;5054952;28;20039;-79
2023/06/18 02:22:37;;;;;;;50.25;29.85;;;13.60;99.90;;;;;;5041599;28;20427;-79
2023/06/18 02:25:03;;;;;;;34.75;22.48;;;13.60;99.90;;;;;;5060523;28;20062;-79
2023/06/18 02:27:29;;;;;;;37.63;26.70;;;13.50;99.90;;;;;;5040081;28;20123;-79
2023/06/18 02:29:55;;;;;;;40.88;26.73;;;13.50;99.90;;;;;;5039299;28;20135;-79
2023/06/18 02:32:23;;;;;;;26.77;18.92;;;13.50;99.90;;;;;;5058822;28;20033;-79
2023/06/18 02:34:49;;;;;;;36.08;23.77;;;13.40;99.90;;;;;;5056725;28;20329;-79
2023/06/18 02:37:14;;;;;;;39.42;23.88;;;13.40;99.90;;;;;;5058812;28;20111;-79
2023/06/18 02:39:40;;;;;;;82.93;21.13;;;13.40;99.90;;;;;;5043301;28;20050;-79
2023/06/18 02:42:09;;;;;;;273.63;28.05;;;13.40;99.90;;;;;;5060851;28;20048;-79
2023/06/18 02:44:35;;;;;;;57.40;25.20;;;13.40;99.90;;;;;;5053120;28;20263;-79
2023/06/18 02:47:00;;;;;;;33.13;23.38;;;13.40;99.90;;;;;;5037500;28;20046;-79
2023/06/18 02:49:27;;;;;;;35.05;22.42;;;13.30;99.90;;;;;;5042305;28;20036;-79
2023/06/18 02:51:53;;;;;;;35.08;23.17;;;13.30;99.90;;;;;;5076430;28;20040;-79
2023/06/18 02:54:20;;;;;;;36.97;25.88;;;13.30;99.90;;;;;;5052717;28;20044;-79
2023/06/18 02:56:48;;;;;;;37.70;25.02;;;13.30;99.90;;;;;;5054469;28;20040;-79
2023/06/18 02:59:14;;;;;;;37.30;24.70;;;13.20;99.90;;;;;;5053392;28;20398;-79
2023/06/18 03:01:40;;;;;;;40.08;25.70;;;13.20;99.90;;;;;;5042627;28;20035;-79
2023/06/18 03:04:06;;;;;;;44.65;27.20;;;13.20;99.90;;;;;;5037632;28;20035;-79
2023/06/18 03:06:32;;;;;;;34.42;22.83;;;13.30;99.90;;;;;;5055376;28;20128;-79
2023/06/18 03:08:57;;;;;;;35.97;23.25;;;13.20;99.90;;;;;;5053180;28;20286;-79
2023/06/18 03:11:23;;;;;;;42.30;27.77;;;13.10;99.90;;;;;;5055642;28;20399;-79
2023/06/18 03:13:51;;;;;;;38.20;26.10;;;13.30;99.90;;;;;;5054259;28;20127;-79
2023/06/18 03:16:16;;;;;;;45.53;28.88;;;13.20;99.90;;;;;;5036953;28;20068;-79
2023/06/18 03:18:42;;;;;;;44.97;27.55;;;13.20;99.90;;;;;;5053479;28;20087;-79
2023/06/18 03:21:08;;;;;;;40.60;26.85;;;13.30;99.90;;;;;;5040527;28;20098;-79
2023/06/18 03:23:37;;;;;;;41.28;25.38;;;13.30;99.90;;;;;;5039801;28;20036;-79
2023/06/18 03:26:02;;;;;;;41.95;27.27;;;13.30;99.90;;;;;;5077465;28;20040;-79
2023/06/18 03:28:29;;;;;;;40.22;26.02;;;13.30;99.90;;;;;;5045586;28;20100;-79
2023/06/18 03:30:55;;;;;;;41.35;27.88;;;13.30;99.90;;;;;;5047950;28;20123;-79
2023/06/18 03:33:21;;;;;;;44.90;27.50;;;13.30;99.90;;;;;;5063251;28;20524;-80
2023/06/18 03:35:47;;;;;;;42.15;27.08;;;13.40;99.90;;;;;;5045650;28;20039;-79
2023/06/18 03:38:13;;;;;;;45.65;28.92;;;13.40;99.90;;;;;;5060561;28;20052;-79
2023/06/18 03:40:39;;;;;;;40.75;26.58;;;13.50;99.90;;;;;;5053610;28;20054;-79
2023/06/18 03:43:05;;;;;;;42.53;26.90;;;13.40;99.90;;;;;;5059322;28;20500;-79
2023/06/18 03:45:30;;;;;;;42.25;26.40;;;13.50;99.90;;;;;;5044717;28;20044;-79
2023/06/18 03:47:56;;;;;;;40.60;26.52;;;13.50;99.90;;;;;;5054859;28;20053;-79
2023/06/18 03:50:22;;;;;;;42.22;27.27;;;13.60;99.90;;;;;;5055490;28;20059;-79
2023/06/18 03:52:47;;;;;;;37.42;25.50;;;13.60;99.90;;;;;;5042524;28;20128;-80
2023/06/18 03:55:15;;;;;;;43.72;26.75;;;13.60;99.90;;;;;;5052394;28;20482;-79
2023/06/18 03:57:41;;;;;;;39.70;26.65;;;13.70;99.90;;;;;;5054326;28;20033;-79
2023/06/18 04:00:09;;;;;;;44.28;28.35;;;13.80;99.90;;;;;;5055102;28;20040;-79
2023/06/18 04:02:34;;;;;;;42.00;27.10;;;13.90;99.90;;;;;;5055049;28;20116;-79
2023/06/18 04:05:00;;;;;;;50.00;29.65;;;14.00;99.90;;;;;;5052321;28;20502;-79
2023/06/18 04:07:26;;;;;;;51.42;30.63;;;14.10;99.90;;;;;;5043807;28;20036;-79
2023/06/18 04:09:52;;;;;;;50.72;30.73;;;14.20;99.90;;;;;;5041922;28;20039;-79
2023/06/18 04:12:18;;;;;;;50.63;31.67;;;14.30;99.90;;;;;;5041783;28;20494;-79
2023/06/18 04:14:43;;;;;;;53.35;31.70;;;14.40;99.90;;;;;;5043836;28;20049;-79
2023/06/18 04:17:10;;;;;;;54.30;31.92;;;14.50;99.90;;;;;;5041359;28;20102;-79
2023/06/18 04:19:35;;;;;;;52.17;30.58;;;14.60;99.90;;;;;;5045287;28;20063;-79
2023/06/18 04:22:01;;;;;;;53.00;31.33;;;14.70;99.90;;;;;;5056318;28;20804;-79
2023/06/18 04:24:26;;;;;;;70.60;33.58;;;14.80;99.90;;;;;;5041734;28;20079;-79
2023/06/18 04:26:52;;;;;;;49.20;30.50;;;14.80;99.90;;;;;;5053355;28;20048;-79
2023/06/18 04:29:18;;;;;;;66.35;33.78;;;14.80;99.90;;;;;;5052416;28;20428;-79
2023/06/18 04:31:43;;;;;;;67.43;31.40;;;14.90;99.90;;;;;;5038225;28;20044;-79
2023/06/18 04:34:09;;;;;;;50.17;30.08;;;15.00;99.90;;;;;;5035097;28;20048;-79
2023/06/18 04:36:36;;;;;;;51.08;29.73;;;15.00;99.90;;;;;;5034899;28;20032;-79
2023/06/18 04:39:02;;;;;;;52.78;29.05;;;15.10;99.90;;;;;;5042404;28;20064;-79
2023/06/18 04:41:28;;;;;;;44.40;29.33;;;15.20;99.90;;;;;;5050646;28;20209;-79
2023/06/18 04:43:55;;;;;;;44.78;27.67;;;15.30;99.90;;;;;;5055595;28;20088;-79
2023/06/18 04:46:21;;;;;;;44.65;27.27;;;15.30;99.90;;;;;;5054559;28;20076;-79
2023/06/18 04:48:46;;;;;;;45.42;28.23;;;15.40;99.90;;;;;;5057481;28;20041;-79
2023/06/18 04:51:12;;;;;;;38.42;25.65;;;15.40;99.90;;;;;;5040374;28;20033;-79
2023/06/18 04:53:38;;;;;;;42.65;24.90;;;15.40;99.90;;;;;;5039599;28;20039;-79
2023/06/18 04:56:03;;;;;;;63.40;26.45;;;15.50;99.90;;;;;;5044612;28;20097;-79
2023/06/18 04:58:36;;;;;;;36.53;24.55;;;15.50;99.90;;;;;;5052970;28;20115;-79
2023/06/18 05:01:02;;;;;;;38.65;25.02;;;15.50;99.90;;;;;;5060502;28;20041;-79
2023/06/18 05:03:28;;;;;;;40.13;25.75;;;15.60;99.90;;;;;;5043169;28;20044;-79
2023/06/18 05:05:56;;;;;;;37.63;25.60;;;15.70;99.90;;;;;;5042107;28;20040;-79
2023/06/18 05:08:23;;;;;;;42.90;25.15;;;15.80;99.90;;;;;;5040498;28;20044;-79
2023/06/18 05:10:49;;;;;;;35.47;24.70;;;15.90;99.90;;;;;;5040553;28;20048;-78
2023/06/18 05:13:15;;;;;;;34.55;23.58;;;15.90;99.90;;;;;;5040870;28;20041;-79
2023/06/18 05:15:40;;;;;;;37.72;24.75;;;15.90;99.90;;;;;;5047446;28;20035;-79
2023/06/18 05:18:06;;;;;;;40.20;24.30;;;16.00;99.90;;;;;;5054709;28;20644;-78
2023/06/18 05:20:32;;;;;;;40.35;24.98;;;15.90;99.90;;;;;;5059316;28;20037;-78
2023/06/18 05:22:57;;;;;;;34.90;23.95;;;16.10;99.90;;;;;;5052085;28;20048;-79
2023/06/18 05:25:23;;;;;;;36.00;24.17;;;16.10;99.90;;;;;;5036893;28;20137;-78
2023/06/18 05:27:49;;;;;;;37.00;25.50;;;16.10;99.90;;;;;;5034331;28;20098;-78
2023/06/18 05:30:15;;;;;;;36.55;25.40;;;16.20;99.90;;;;;;5040652;28;20064;-78
2023/06/18 05:32:40;;;;;;;35.65;24.42;;;16.30;99.90;;;;;;5041627;28;20040;-79
2023/06/18 05:35:06;;;;;;;36.17;25.13;;;16.50;99.90;;;;;;5052300;28;20630;-79
2023/06/18 05:37:32;;;;;;;35.10;25.05;;;16.50;99.90;;;;;;5054908;28;20047;-78
2023/06/18 05:39:58;;;;;;;35.17;24.50;;;16.60;99.90;;;;;;5046957;28;20041;-78
2023/06/18 05:42:23;;;;;;;35.00;23.27;;;16.70;99.90;;;;;;5048832;28;20341;-78
2023/06/18 05:44:49;;;;;;;35.10;24.23;;;16.80;99.90;;;;;;5036720;28;20070;-79
2023/06/18 05:47:14;;;;;;;32.88;23.35;;;16.80;99.90;;;;;;5050437;28;20048;-79
2023/06/18 05:49:40;;;;;;;32.65;22.98;;;17.00;99.90;;;;;;5035529;28;20037;-78
2023/06/18 05:52:06;;;;;;;30.58;22.33;;;17.10;99.90;;;;;;5036004;28;20033;-78
2023/06/18 05:54:32;;;;;;;32.08;21.95;;;17.10;99.90;;;;;;5046491;28;20502;-78
2023/06/18 05:56:57;;;;;;;29.70;21.60;;;17.20;99.90;;;;;;5037792;28;20048;-79
2023/06/18 05:59:23;;;;;;;28.92;21.30;;;17.20;99.90;;;;;;5051281;28;20167;-79
2023/06/18 06:01:48;;;;;;;28.67;21.58;;;17.20;99.90;;;;;;5042110;28;20046;-78
2023/06/18 06:04:14;;;;;;;31.02;21.98;;;17.30;99.90;;;;;;5051445;28;20028;-78
2023/06/18 06:06:40;;;;;;;30.92;23.20;;;17.50;99.90;;;;;;5057192;28;20170;-78
2023/06/18 06:09:07;;;;;;;31.95;22.20;;;17.60;99.90;;;;;;5051699;28;20041;-78
2023/06/18 06:11:36;;;;;;;29.15;21.42;;;17.70;99.90;;;;;;5039219;28;20142;-79
2023/06/18 06:14:03;;;;;;;29.10;21.60;;;17.70;99.90;;;;;;5052961;28;20590;-79
2023/06/18 06:16:28;;;;;;;26.50;20.75;;;17.90;99.90;;;;;;5039314;28;20259;-79
2023/06/18 06:18:54;;;;;;;27.70;20.77;;;17.90;99.90;;;;;;5051716;28;20563;-79
2023/06/18 06:21:19;;;;;;;26.92;20.98;;;18.00;99.90;;;;;;5053312;28;20498;-79
2023/06/18 06:23:45;;;;;;;26.65;20.90;;;18.10;99.90;;;;;;5040522;28;20032;-79
2023/06/18 06:26:11;;;;;;;27.55;20.92;;;18.20;99.90;;;;;;5049463;28;20064;-79
2023/06/18 06:28:37;;;;;;;27.50;20.67;;;18.40;99.90;;;;;;5048149;28;20056;-79
2023/06/18 06:31:03;;;;;;;30.15;22.30;;;18.40;99.90;;;;;;5049820;28;20044;-78
2023/06/18 06:33:29;;;;;;;31.80;21.95;;;18.50;99.90;;;;;;5051017;28;20063;-78
2023/06/18 06:35:55;;;;;;;25.63;20.73;;;18.60;99.90;;;;;;5049486;28;20048;-79
2023/06/18 06:38:21;;;;;;;27.00;20.30;;;18.70;99.90;;;;;;5051410;28;20045;-79
2023/06/18 06:40:46;;;;;;;28.92;20.33;;;18.80;99.90;;;;;;5037708;28;20489;-79
2023/06/18 06:43:12;;;;;;;23.65;19.52;;;18.90;99.90;;;;;;5051114;28;20097;-79
2023/06/18 06:45:37;;;;;;;25.63;18.98;;;19.10;99.90;;;;;;5052790;28;20395;-79
2023/06/18 06:48:03;;;;;;;23.50;18.88;;;19.20;99.90;;;;;;5049655;28;20032;-79
2023/06/18 06:50:32;;;;;;;22.77;18.02;;;19.50;99.90;;;;;;5041272;28;20048;-79
2023/06/18 06:52:57;;;;;;;21.52;17.85;;;19.60;99.90;;;;;;5052054;28;20276;-79
2023/06/18 06:55:23;;;;;;;22.70;18.85;;;19.70;99.90;;;;;;5052522;28;20041;-79
2023/06/18 06:57:49;;;;;;;23.77;18.45;;;19.80;99.90;;;;;;5054057;28;20504;-79
2023/06/18 07:00:16;;;;;;;21.88;17.95;;;19.90;99.90;;;;;;5042920;28;20279;-79
2023/06/18 07:02:41;;;;;;;22.67;17.65;;;20.10;99.90;;;;;;5055865;28;20108;-79
2023/06/18 07:05:09;;;;;;;22.58;16.85;;;20.40;99.90;;;;;;5040862;28;20048;-79
2023/06/18 07:07:39;;;;;;;23.77;16.60;;;20.40;99.90;;;;;;5044738;28;20094;-79
2023/06/18 07:10:05;;;;;;;21.23;16.35;;;20.70;99.90;;;;;;5055783;28;20408;-79
2023/06/18 07:12:31;;;;;;;24.27;16.15;;;20.90;99.90;;;;;;5041504;28;20437;-79
2023/06/18 07:14:56;;;;;;;20.25;15.10;;;21.00;99.90;;;;;;5044518;28;20089;-79
2023/06/18 07:17:22;;;;;;;20.65;15.18;;;21.10;99.90;;;;;;5043098;28;20044;-79
2023/06/18 07:19:48;;;;;;;19.25;15.48;;;21.20;99.90;;;;;;5043091;28;20029;-79
2023/06/18 07:22:14;;;;;;;19.00;14.65;;;21.10;99.90;;;;;;5048991;28;20106;-78
2023/06/18 07:24:39;;;;;;;18.98;16.25;;;20.90;99.90;;;;;;5033343;28;20068;-79
2023/06/18 07:27:05;;;;;;;18.55;15.75;;;21.00;99.90;;;;;;5034773;28;20226;-79
2023/06/18 07:29:31;;;;;;;20.08;15.57;;;21.10;99.90;;;;;;5035308;28;20044;-79
2023/06/18 07:31:56;;;;;;;19.63;15.05;;;21.00;99.90;;;;;;5055097;28;20048;-79
2023/06/18 07:34:22;;;;;;;19.63;15.85;;;21.20;99.90;;;;;;5036142;28;20823;-79
2023/06/18 07:36:49;;;;;;;20.08;16.50;;;21.40;99.90;;;;;;5053021;28;20033;-79
2023/06/18 07:39:15;;;;;;;16.20;14.25;;;21.70;99.90;;;;;;5053385;28;20044;-79
2023/06/18 07:41:41;;;;;;;15.52;13.80;;;21.80;99.90;;;;;;5037382;28;20059;-79
2023/06/18 07:44:07;;;;;;;17.75;14.68;;;21.90;99.90;;;;;;5040410;28;20040;-79
2023/06/18 07:46:33;;;;;;;17.33;15.40;;;22.10;99.90;;;;;;5054935;28;20043;-79
2023/06/18 07:48:59;;;;;;;20.50;14.73;;;22.00;99.90;;;;;;5033889;28;20055;-79
2023/06/18 07:51:25;;;;;;;16.10;13.57;;;21.90;99.90;;;;;;5056566;28;20060;-79
2023/06/18 07:53:51;;;;;;;16.70;13.93;;;21.90;99.90;;;;;;5042421;28;20484;-79
2023/06/18 07:56:16;;;;;;;16.80;13.02;;;22.20;99.90;;;;;;5055195;28;20067;-79
2023/06/18 07:58:43;;;;;;;17.45;14.02;;;22.40;99.90;;;;;;5054285;28;20042;-79
2023/06/18 08:01:09;;;;;;;16.45;13.38;;;22.60;99.90;;;;;;5071178;28;20133;-79
2023/06/18 08:03:35;;;;;;;17.55;12.85;;;22.70;99.90;;;;;;5041871;28;20137;-79
2023/06/18 08:06:01;;;;;;;15.82;12.95;;;22.90;99.90;;;;;;5057615;28;20074;-79
2023/06/18 08:08:26;;;;;;;15.38;12.60;;;23.10;99.90;;;;;;5056222;28;20048;-79
2023/06/18 08:10:52;;;;;;;16.35;11.88;;;23.40;99.90;;;;;;5052750;28;20044;-79
2023/06/18 08:13:17;;;;;;;13.30;11.90;;;23.40;99.90;;;;;;5044670;28;20039;-79
2023/06/18 08:15:43;;;;;;;16.70;12.57;;;23.70;99.90;;;;;;5044573;28;20438;-79
2023/06/18 08:18:09;;;;;;;16.52;12.75;;;23.80;99.90;;;;;;5047724;28;20044;-79
2023/06/18 08:20:34;;;;;;;15.60;11.95;;;23.80;99.90;;;;;;5059507;28;20557;-79
2023/06/18 08:23:00;;;;;;;16.55;12.82;;;24.00;99.90;;;;;;5061380;28;20178;-79
2023/06/18 08:25:29;;;;;;;14.15;12.15;;;24.00;99.90;;;;;;5055116;28;20120;-79
2023/06/18 08:27:56;;;;;;;15.60;12.10;;;24.10;99.90;;;;;;5064088;28;20553;-79
2023/06/18 08:30:22;;;;;;;17.25;11.95;;;24.10;99.90;;;;;;5044193;28;20502;-79
2023/06/18 08:32:47;;;;;;;15.40;12.30;;;24.40;99.90;;;;;;5043644;28;20047;-79
2023/06/18 08:35:13;;;;;;;14.98;11.93;;;24.50;99.90;;;;;;5060807;28;20036;-77
2023/06/18 08:37:39;;;;;;;14.45;12.18;;;24.40;99.90;;;;;;5057644;28;20036;-79
2023/06/18 08:40:12;;;;;;;13.63;11.50;;;24.40;99.90;;;;;;5074650;28;20205;-79
2023/06/18 08:42:38;;;;;;;14.02;11.73;;;24.70;99.90;;;;;;5053122;28;20048;-79
2023/06/18 08:45:05;;;;;;;16.13;12.65;;;25.00;99.90;;;;;;5050240;28;20039;-79
2023/06/18 08:47:32;;;;;;;15.45;11.90;;;24.90;99.90;;;;;;5048737;28;20228;-79
2023/06/18 08:50:01;;;;;;;17.90;12.40;;;25.20;99.90;;;;;;5050658;28;20123;-79
2023/06/18 08:52:30;;;;;;;19.10;12.50;;;25.40;99.90;;;;;;5044854;28;20193;-79
2023/06/18 08:55:02;;;;;;;14.32;12.00;;;25.10;99.90;;;;;;5044793;28;20109;-79
2023/06/18 08:57:52;;;;;;;14.43;11.85;;;25.40;99.90;;;;;;5043537;28;20032;-79
2023/06/18 09:00:18;;;;;;;14.20;11.98;;;25.20;99.90;;;;;;5043645;28;20447;-79
2023/06/18 09:02:45;;;;;;;18.63;12.57;;;25.70;99.90;;;;;;5061861;28;20124;-79
2023/06/18 09:05:11;;;;;;;18.80;12.10;;;25.40;99.90;;;;;;5063939;28;20093;-79
2023/06/18 09:07:37;;;;;;;14.07;11.70;;;25.90;99.90;;;;;;5058001;28;20033;-79
2023/06/18 09:10:04;;;;;;;16.00;11.80;;;25.90;99.90;;;;;;5053441;28;20132;-79
2023/06/18 09:12:29;;;;;;;14.68;11.65;;;26.00;99.90;;;;;;5039626;28;20036;-79
2023/06/18 09:14:55;;;;;;;12.38;10.43;;;26.10;99.90;;;;;;5059479;28;20040;-80
2023/06/18 09:17:22;;;;;;;11.27;9.38;;;26.40;99.90;;;;;;5043156;28;20032;-80
2023/06/18 09:19:49;;;;;;;13.75;10.40;;;26.20;99.90;;;;;;5045270;28;20127;-80
2023/06/18 09:22:17;;;;;;;11.73;10.40;;;26.20;99.90;;;;;;5054936;28;20036;-80
2023/06/18 09:24:43;;;;;;;13.23;9.75;;;26.60;1.00;;;;;;5071049;28;20074;-80
2023/06/18 09:27:09;;;;;;;11.88;10.32;;;27.00;99.90;;;;;;5047918;27;20092;-79
2023/06/18 09:29:38;;;;;;;13.93;9.48;;;26.70;1.00;;;;;;5087034;27;20042;-80
2023/06/18 09:32:10;;;;;;;12.85;8.35;;;27.10;1.00;;;;;;5069866;27;20476;-80
2023/06/18 09:34:37;;;;;;;10.55;8.95;;;27.50;99.90;;;;;;5088703;27;20047;-79
2023/06/18 09:37:05;;;;;;;10.75;8.73;;;27.50;99.90;;;;;;5077046;28;20035;-80
2023/06/18 09:39:32;;;;;;;10.00;7.60;;;27.60;20.70;;;;;;5078566;28;20108;-79
2023/06/18 09:42:06;;;;;;;9.70;8.65;;;27.80;99.90;;;;;;5074849;28;20048;-80
2023/06/18 09:44:33;;;;;;;10.88;8.50;;;27.80;1.00;;;;;;5084234;27;20044;-80
2023/06/18 09:46:58;;;;;;;7.47;6.78;;;27.70;99.90;;;;;;5072258;27;20289;-80
2023/06/18 09:49:29;;;;;;;9.63;6.35;;;28.30;99.90;;;;;;5086808;27;20150;-79
2023/06/18 09:51:54;;;;;;;7.57;6.80;;;28.40;1.00;;;;;;5080225;27;20202;-79
2023/06/18 09:54:21;;;;;;;8.75;7.03;;;28.80;99.90;;;;;;5059279;27;20177;-80
2023/06/18 09:57:15;;;;;;;8.07;7.28;;;28.70;99.90;;;;;;5080105;27;20573;-79
2023/06/18 09:59:41;;;;;;;8.75;6.55;;;28.90;99.90;;;;;;5078401;28;20115;-80
2023/06/18 10:02:12;;;;;;;8.27;7.30;;;28.80;99.90;;;;;;5081985;28;20321;-80
2023/06/18 10:04:38;;;;;;;8.00;6.63;;;29.30;99.90;;;;;;5082266;28;20036;-80
2023/06/18 10:07:15;;;;;;;8.50;6.28;;;29.20;99.90;;;;;;5082596;27;20513;-79
2023/06/18 10:09:44;;;;;;;7.57;6.78;;;29.40;99.90;;;;;;5083454;27;20442;-79
2023/06/18 10:12:12;;;;;;;7.75;6.95;;;29.50;1.00;;;;;;5086479;27;20435;-80
2023/06/18 10:14:39;;;;;;;8.10;7.30;;;29.30;1.00;;;;;;5072243;28;20039;-80
2023/06/18 10:17:46;;;;;;;12.30;6.43;;;29.40;1.00;;;;;;5067303;27;20107;-80
2023/06/18 10:20:14;;;;;;;9.23;6.75;;;29.80;1.00;;;;;;4980384;28;20034;-80
2023/06/18 10:22:54;;;;;;;8.27;6.82;;;29.80;1.00;;;;;;5071578;28;20052;-80
2023/06/18 10:25:20;;;;;;;8.32;6.47;;;30.00;1.00;;;;;;5064392;28;20349;-80
2023/06/18 10:27:47;;;;;;;7.35;6.03;;;30.00;99.90;;;;;;5083202;27;20286;-80
2023/06/18 10:30:17;;;;;;;7.10;6.40;;;30.20;99.90;;;;;;5059093;28;20441;-79
2023/06/18 10:32:43;;;;;;;10.15;6.97;;;30.10;99.90;;;;;;5060319;27;20466;-80
2023/06/18 10:35:12;;;;;;;8.48;7.35;;;29.90;99.90;;;;;;5073547;27;20049;-80
2023/06/18 10:37:40;;;;;;;10.63;6.55;;;30.30;99.90;;;;;;5076245;28;20062;-80
2023/06/18 10:40:09;;;;;;;7.28;6.18;;;30.00;99.90;;;;;;5068392;28;20051;-80
2023/06/18 10:42:35;;;;;;;7.68;6.88;;;30.00;99.90;;;;;;5081592;27;20421;-79
2023/06/18 10:45:19;;;;;;;7.20;6.50;;;30.10;99.90;;;;;;5069052;27;20542;-80
2023/06/18 10:47:45;;;;;;;8.25;6.60;;;29.90;99.90;;;;;;5072286;28;20036;-79
2023/06/18 10:50:16;;;;;;;9.27;6.63;;;30.40;99.90;;;;;;5072629;27;20485;-80
2023/06/18 10:52:50;;;;;;;8.77;6.65;;;30.00;99.90;;;;;;5083004;28;20040;-79
2023/06/18 10:55:21;;;;;;;7.13;6.43;;;30.50;99.90;;;;;;5077930;28;20032;-80
2023/06/18 10:57:50;;;;;;;8.30;6.55;;;30.20;99.90;;;;;;5070839;27;20036;-80
2023/06/18 11:00:30;;;;;;;7.13;6.35;;;30.20;99.90;;;;;;5084451;28;20053;-79
2023/06/18 11:03:01;;;;;;;8.07;6.32;;;30.00;99.90;;;;;;5063992;28;20039;-80
2023/06/18 11:05:32;;;;;;;9.35;6.15;;;30.10;99.90;;;;;;5066641;28;20253;-80
2023/06/18 11:08:04;;;;;;;7.88;6.68;;;30.40;99.90;;;;;;5073518;28;20397;-80
2023/06/18 11:10:37;;;;;;;8.05;6.38;;;30.00;99.90;;;;;;5065434;28;20332;-79
2023/06/18 11:13:04;;;;;;;7.70;6.20;;;30.50;99.90;;;;;;5083496;27;20039;-79
2023/06/18 11:15:30;;;;;;;7.22;6.53;;;30.20;99.90;;;;;;5068302;28;20039;-79
2023/06/18 11:18:00;;;;;;;8.93;6.63;;;30.30;99.90;;;;;;5081077;28;20042;-79
2023/06/18 11:20:29;;;;;;;7.70;6.50;;;30.00;99.90;;;;;;5111606;27;20995;-79
2023/06/18 11:22:56;;;;;;;8.30;6.43;;;30.00;99.90;;;;;;5093736;28;20051;-79
2023/06/18 11:25:23;;;;;;;9.45;7.15;;;30.70;99.90;;;;;;5065286;28;20038;-79
2023/06/18 11:27:54;;;;;;;7.40;6.28;;;30.70;99.90;;;;;;5074914;28;20482;-79
2023/06/18 11:30:20;;;;;;;7.35;5.95;;;30.20;99.90;;;;;;5083629;28;20035;-80
2023/06/18 11:32:46;;;;;;;8.93;6.90;;;30.40;99.90;;;;;;5084231;28;20031;-79
2023/06/18 11:35:13;;;;;;;6.65;5.63;;;31.00;99.90;;;;;;5075421;28;20062;-80
2023/06/18 11:37:40;;;;;;;8.02;6.40;;;31.00;99.90;;;;;;5068741;28;20058;-80
2023/06/18 11:40:07;;;;;;;8.43;6.68;;;30.80;91.90;;;;;;5074373;28;20053;-79
2023/06/18 11:42:34;;;;;;;7.18;6.47;;;30.20;64.70;;;;;;5092806;28;20484;-80
2023/06/18 11:45:05;;;;;;;8.25;6.47;;;30.60;61.90;;;;;;5066963;28;20050;-79
2023/06/18 11:47:34;;;;;;;7.32;6.60;;;30.40;35.90;;;;;;5086198;27;20039;-80
2023/06/18 11:50:00;;;;;;;7.55;6.57;;;30.00;13.40;;;;;;5086809;28;20055;-80
2023/06/18 11:52:28;;;;;;;7.40;6.60;;;30.40;54.10;;;;;;5076531;27;20071;-80
2023/06/18 11:55:00;;;;;;;7.03;6.28;;;30.30;19.90;;;;;;5078141;28;20088;-80
2023/06/18 11:57:26;;;;;;;8.13;6.63;;;30.00;18.00;;;;;;5066241;27;20069;-80
2023/06/18 11:59:53;;;;;;;7.85;6.70;;;30.00;1.00;;;;;;5090835;28;20036;-79
2023/06/18 12:02:25;;;;;;;7.80;6.22;;;29.50;1.00;;;;;;5057829;28;20066;-80
2023/06/18 12:04:51;;;;;;;8.25;6.53;;;29.70;1.00;;;;;;5091113;27;20050;-79
2023/06/18 12:07:22;;;;;;;7.00;6.30;;;30.00;1.00;;;;;;5088128;28;20043;-80
2023/06/18 12:09:51;;;;;;;8.88;7.07;;;30.30;1.00;;;;;;5069665;27;20059;-80
2023/06/18 12:12:32;;;;;;;9.00;6.28;;;30.60;6.20;;;;;;5088384;27;20510;-80
2023/06/18 12:15:22;;;;;;;7.75;6.10;;;30.70;1.00;;;;;;5089118;28;20047;-80
2023/06/18 12:17:55;;;;;;;7.38;6.63;;;29.80;1.00;;;;;;5069336;27;20444;-80
2023/06/18 12:20:24;;;;;;;7.18;6.47;;;29.50;1.00;;;;;;5077442;27;20439;-80
2023/06/18 12:22:50;;;;;;;6.80;5.90;;;30.00;1.00;;;;;;5087841;27;20488;-80
2023/06/18 12:25:17;;;;;;;6.70;6.03;;;30.10;1.00;;;;;;5077555;28;20173;-80
2023/06/18 12:27:43;;;;;;;6.72;6.03;;;30.40;1.00;;;;;;5063576;28;20426;-80
2023/06/18 12:30:11;;;;;;;7.55;6.72;;;30.00;1.00;;;;;;5083577;27;20205;-80
2023/06/18 12:32:38;;;;;;;8.43;6.15;;;30.60;1.00;;;;;;5073566;27;20031;-80
2023/06/18 12:35:19;;;;;;;7.28;6.55;;;31.10;1.00;;;;;;5077637;27;20031;-79